Time;durP1;ratioP1;P1;durP2;ratioP2;P2;SDS_P1;SDS_P2;PMS_P1;PMS_P2;Temp;Humidity;BMP_temperature;BMP_pressure;BME280_temperature;BME280_humidity;BME280_pressure;Samples;Min_cycle;Max_cycle;Signal;HPM_P1;HPM_P2
2020/12/21 00:01:44;;;;;;;34.23;29.40;;;11.30;97.60;;;;;;5071590;28;20698;-50
2020/12/21 00:04:11;;;;;;;29.20;23.20;;;11.30;97.60;;;;;;5058342;28;21053;-48
2020/12/21 00:06:38;;;;;;;35.10;25.13;;;11.30;97.60;;;;;;5052043;28;20658;-50
2020/12/21 00:09:06;;;;;;;32.20;28.70;;;11.30;97.60;;;;;;5052090;28;21042;-51
2020/12/21 00:11:34;;;;;;;38.33;29.67;;;11.30;97.60;;;;;;5033945;28;20630;-51
2020/12/21 00:14:02;;;;;;;35.87;27.30;;;11.30;97.60;;;;;;5051745;28;20756;-52
2020/12/21 00:16:36;;;;;;;36.07;26.33;;;11.20;97.60;;;;;;5051504;28;20658;-51
2020/12/21 00:19:03;;;;;;;32.10;26.50;;;11.20;97.60;;;;;;5034069;28;20621;-52
2020/12/21 00:21:30;;;;;;;34.40;26.23;;;11.20;97.60;;;;;;5051583;28;20637;-51
2020/12/21 00:23:57;;;;;;;34.87;26.67;;;11.20;97.70;;;;;;5050706;28;20716;-51
2020/12/21 00:26:25;;;;;;;36.93;29.57;;;11.20;97.60;;;;;;5040567;28;20657;-51
2020/12/21 00:28:52;;;;;;;37.90;26.33;;;11.20;97.70;;;;;;5052478;28;20720;-51
2020/12/21 00:31:23;;;;;;;33.10;24.60;;;11.20;97.60;;;;;;5070609;28;20625;-52
2020/12/21 00:33:49;;;;;;;39.63;28.43;;;11.20;97.70;;;;;;5070420;28;20726;-52
2020/12/21 00:36:16;;;;;;;36.63;27.30;;;11.20;97.60;;;;;;5070159;28;20733;-51
2020/12/21 00:38:43;;;;;;;32.03;26.33;;;11.20;97.60;;;;;;5070259;28;20625;-52
2020/12/21 00:41:10;;;;;;;34.33;26.90;;;11.20;97.50;;;;;;5070301;28;20661;-51
2020/12/21 00:43:37;;;;;;;34.10;24.37;;;11.30;97.50;;;;;;5070495;28;20657;-52
2020/12/21 00:46:04;;;;;;;35.37;24.87;;;11.20;97.40;;;;;;5070405;28;20668;-50
2020/12/21 00:48:31;;;;;;;34.77;28.27;;;11.20;97.40;;;;;;5070287;28;20687;-50
2020/12/21 00:50:58;;;;;;;37.83;27.70;;;11.20;97.40;;;;;;5070810;28;20643;-49
2020/12/21 00:53:24;;;;;;;51.97;29.73;;;11.10;97.30;;;;;;5070136;28;20681;-50
2020/12/21 00:55:51;;;;;;;35.50;27.97;;;11.10;97.30;;;;;;5070045;28;20653;-49
2020/12/21 00:58:18;;;;;;;30.50;25.50;;;11.10;97.40;;;;;;5069250;28;20712;-48
2020/12/21 01:00:45;;;;;;;37.27;28.30;;;11.10;97.50;;;;;;5070365;28;20679;-50
2020/12/21 01:03:14;;;;;;;41.00;26.57;;;11.10;97.50;;;;;;5069855;28;21034;-48
2020/12/21 01:05:41;;;;;;;29.50;21.70;;;11.10;97.70;;;;;;5070072;28;20663;-49
2020/12/21 01:08:08;;;;;;;40.20;29.67;;;11.10;97.40;;;;;;5069631;28;20665;-49
2020/12/21 01:10:35;;;;;;;36.73;25.70;;;11.10;97.50;;;;;;5069638;28;20664;-50
2020/12/21 01:13:01;;;;;;;37.07;25.73;;;11.10;97.50;;;;;;5069724;28;21202;-50
2020/12/21 01:15:28;;;;;;;35.30;23.57;;;11.10;97.40;;;;;;5070210;28;20691;-49
2020/12/21 01:17:56;;;;;;;48.17;28.60;;;11.00;97.50;;;;;;5069842;28;20697;-51
2020/12/21 01:20:22;;;;;;;42.90;28.50;;;11.00;97.50;;;;;;5069264;28;20694;-48
2020/12/21 01:22:49;;;;;;;40.83;26.23;;;10.90;97.60;;;;;;5069588;28;20629;-50
2020/12/21 01:25:16;;;;;;;41.70;28.10;;;10.90;97.60;;;;;;5069264;28;20629;-49
2020/12/21 01:27:43;;;;;;;36.10;25.10;;;10.90;97.80;;;;;;5069599;28;20722;-48
2020/12/21 01:30:09;;;;;;;41.93;28.60;;;10.90;97.80;;;;;;5069412;28;20675;-49
2020/12/21 01:32:36;;;;;;;41.53;31.20;;;10.90;97.90;;;;;;5069911;28;20655;-52
2020/12/21 01:35:04;;;;;;;42.07;30.70;;;10.90;97.80;;;;;;5068575;28;20722;-51
2020/12/21 01:37:31;;;;;;;43.47;30.83;;;10.90;97.90;;;;;;5069643;28;21247;-51
2020/12/21 01:39:57;;;;;;;41.63;30.20;;;10.90;97.80;;;;;;5070038;28;20679;-50
2020/12/21 01:42:24;;;;;;;39.20;30.90;;;10.90;97.80;;;;;;5069486;28;20671;-52
2020/12/21 01:44:51;;;;;;;35.73;28.07;;;10.90;97.70;;;;;;5069639;28;20625;-53
2020/12/21 01:47:18;;;;;;;36.80;25.17;;;10.90;97.70;;;;;;5069444;28;20679;-52
2020/12/21 01:49:45;;;;;;;36.60;23.93;;;10.90;97.60;;;;;;5069536;28;20670;-52
2020/12/21 01:52:12;;;;;;;38.03;26.60;;;10.90;97.50;;;;;;5069336;28;20625;-51
2020/12/21 01:54:39;;;;;;;39.80;27.57;;;10.90;97.50;;;;;;5070173;28;21262;-52
2020/12/21 01:57:06;;;;;;;35.90;25.90;;;10.90;97.50;;;;;;5069418;28;20845;-52
2020/12/21 01:59:32;;;;;;;31.53;24.43;;;10.90;97.50;;;;;;5069174;28;20925;-53
2020/12/21 02:01:59;;;;;;;27.10;23.03;;;10.80;97.50;;;;;;5069309;28;20621;-52
2020/12/21 02:04:26;;;;;;;36.03;24.83;;;10.80;97.60;;;;;;5064237;28;20732;-50
2020/12/21 02:06:54;;;;;;;35.20;26.93;;;10.80;97.60;;;;;;5069618;28;20783;-49
2020/12/21 02:09:22;;;;;;;34.43;25.77;;;10.80;97.70;;;;;;5069935;28;21184;-53
2020/12/21 02:11:48;;;;;;;35.30;24.33;;;10.70;97.70;;;;;;5069582;28;21000;-52
2020/12/21 02:14:15;;;;;;;32.40;23.80;;;10.80;97.70;;;;;;5069278;28;20706;-49
2020/12/21 02:16:42;;;;;;;33.00;23.00;;;10.90;97.70;;;;;;5069621;28;20684;-52
2020/12/21 02:19:09;;;;;;;33.00;24.50;;;10.80;97.60;;;;;;5069054;28;20759;-51
2020/12/21 02:21:36;;;;;;;27.80;20.93;;;10.90;97.70;;;;;;5069793;28;20618;-53
2020/12/21 02:24:03;;;;;;;29.33;21.70;;;10.90;97.60;;;;;;5069396;28;20652;-53
2020/12/21 02:26:30;;;;;;;29.87;21.30;;;10.80;97.50;;;;;;5069515;28;20693;-53
2020/12/21 02:28:58;;;;;;;32.83;21.73;;;10.90;97.60;;;;;;5069031;28;21164;-54
2020/12/21 02:31:25;;;;;;;26.80;20.23;;;10.90;97.50;;;;;;5069395;28;20668;-52
2020/12/21 02:33:52;;;;;;;28.60;23.00;;;10.80;97.50;;;;;;5069308;28;21044;-53
2020/12/21 02:36:18;;;;;;;30.13;23.87;;;10.90;97.90;;;;;;5069575;28;20656;-52
2020/12/21 02:38:46;;;;;;;34.60;26.47;;;10.90;97.50;;;;;;5068978;28;21013;-52
2020/12/21 02:41:13;;;;;;;28.90;23.13;;;10.90;97.50;;;;;;5069625;28;20668;-51
2020/12/21 02:43:40;;;;;;;37.20;25.40;;;11.00;97.50;;;;;;5072091;28;20682;-52
2020/12/21 02:46:07;;;;;;;28.83;21.73;;;11.00;97.40;;;;;;5073468;28;20678;-52
2020/12/21 02:48:33;;;;;;;27.17;21.57;;;11.00;97.50;;;;;;5073006;28;20629;-53
2020/12/21 02:51:00;;;;;;;27.97;20.70;;;11.00;97.50;;;;;;5074937;28;20651;-53
2020/12/21 02:53:27;;;;;;;30.40;21.30;;;11.00;97.50;;;;;;5075352;28;20628;-52
2020/12/21 02:55:55;;;;;;;25.33;20.60;;;11.00;97.60;;;;;;5074444;28;20633;-51
2020/12/21 02:58:21;;;;;;;31.30;22.97;;;10.90;97.60;;;;;;5072107;28;20700;-52
2020/12/21 03:00:48;;;;;;;30.80;23.70;;;10.90;97.70;;;;;;5072566;28;20633;-52
2020/12/21 03:03:16;;;;;;;30.37;22.63;;;10.90;98.10;;;;;;5054308;28;20612;-52
2020/12/21 03:05:43;;;;;;;30.17;22.97;;;10.90;97.70;;;;;;5072794;28;20629;-52
2020/12/21 03:08:10;;;;;;;28.50;23.33;;;10.90;97.70;;;;;;5072173;28;20684;-52
2020/12/21 03:10:37;;;;;;;33.07;23.93;;;10.90;97.80;;;;;;5072537;28;21253;-52
2020/12/21 03:13:05;;;;;;;29.80;23.57;;;10.90;97.70;;;;;;5072351;28;20616;-52
2020/12/21 03:15:32;;;;;;;27.90;22.13;;;10.90;97.60;;;;;;5072332;28;20657;-52
2020/12/21 03:17:59;;;;;;;33.37;24.97;;;10.90;97.60;;;;;;5072415;28;20664;-52
2020/12/21 03:20:25;;;;;;;30.40;24.40;;;11.00;97.60;;;;;;5071954;28;20674;-52
2020/12/21 03:22:52;;;;;;;30.00;23.80;;;10.90;97.40;;;;;;5072539;28;20633;-52
2020/12/21 03:25:19;;;;;;;30.97;24.30;;;10.90;97.40;;;;;;5071485;28;20690;-51
2020/12/21 03:27:46;;;;;;;31.97;26.70;;;10.90;97.40;;;;;;5071920;28;20660;-50
2020/12/21 03:30:13;;;;;;;30.97;22.83;;;10.90;97.40;;;;;;5072431;28;20640;-52
2020/12/21 03:32:40;;;;;;;31.10;24.30;;;10.80;97.30;;;;;;5072344;28;21111;-50
2020/12/21 03:35:07;;;;;;;28.97;23.97;;;10.80;97.30;;;;;;5071180;28;20935;-48
2020/12/21 03:37:34;;;;;;;29.90;24.47;;;10.70;97.30;;;;;;5071838;28;21228;-50
2020/12/21 03:40:01;;;;;;;31.27;24.30;;;10.70;97.40;;;;;;5071858;28;21079;-49
2020/12/21 03:42:27;;;;;;;29.87;24.00;;;10.60;97.30;;;;;;5071593;28;20624;-51
2020/12/21 03:44:54;;;;;;;26.23;21.63;;;10.60;97.50;;;;;;5070671;28;20647;-51
2020/12/21 03:47:22;;;;;;;28.57;22.20;;;10.60;97.50;;;;;;5071098;28;20673;-49
2020/12/21 03:49:48;;;;;;;27.07;21.00;;;10.60;97.50;;;;;;5071766;28;21273;-50
2020/12/21 03:52:15;;;;;;;33.00;24.83;;;10.60;97.40;;;;;;5071612;28;20648;-53
2020/12/21 03:54:42;;;;;;;32.63;22.27;;;10.60;97.40;;;;;;5071009;28;20653;-53
2020/12/21 03:57:09;;;;;;;28.70;22.20;;;10.60;97.40;;;;;;5086271;22;21221;-54
2020/12/21 03:59:35;;;;;;;27.83;22.93;;;10.60;97.40;;;;;;5070677;28;20698;-56
2020/12/21 04:02:02;;;;;;;30.27;23.23;;;10.60;97.30;;;;;;5073534;28;20682;-56
2020/12/21 04:04:30;;;;;;;24.97;21.53;;;10.60;97.30;;;;;;5077764;28;20704;-57
2020/12/21 04:06:56;;;;;;;27.17;23.33;;;10.60;97.30;;;;;;5072484;28;20617;-57
2020/12/21 04:09:23;;;;;;;30.43;24.83;;;10.60;97.30;;;;;;5053486;28;20630;-56
2020/12/21 04:11:50;;;;;;;34.40;20.43;;;10.60;97.20;;;;;;5052969;28;20618;-55
2020/12/21 04:14:17;;;;;;;25.90;21.37;;;10.60;97.20;;;;;;5052535;28;20653;-56
2020/12/21 04:16:43;;;;;;;24.77;19.53;;;10.60;97.10;;;;;;5052696;28;20618;-57
2020/12/21 04:19:10;;;;;;;26.50;20.67;;;10.60;97.10;;;;;;5052483;28;20707;-56
2020/12/21 04:21:38;;;;;;;25.57;19.07;;;10.60;97.10;;;;;;5059607;28;20679;-56
2020/12/21 04:24:04;;;;;;;28.57;20.07;;;10.60;97.10;;;;;;5072134;28;21172;-56
2020/12/21 04:26:31;;;;;;;32.90;22.63;;;10.50;97.00;;;;;;5072156;28;20629;-56
2020/12/21 04:28:58;;;;;;;24.37;19.47;;;10.50;97.00;;;;;;5072216;28;20684;-57
2020/12/21 04:31:25;;;;;;;23.80;19.50;;;10.40;96.90;;;;;;5071891;28;20847;-54
2020/12/21 04:33:52;;;;;;;21.20;17.47;;;10.40;97.00;;;;;;5072202;28;21065;-53
2020/12/21 04:36:19;;;;;;;24.43;19.50;;;10.40;97.10;;;;;;5072456;28;20648;-53
2020/12/21 04:38:46;;;;;;;23.47;18.57;;;10.40;97.10;;;;;;5072239;28;20693;-56
2020/12/21 04:41:13;;;;;;;23.17;16.83;;;10.40;97.00;;;;;;5072121;28;20663;-56
2020/12/21 04:43:40;;;;;;;22.17;19.37;;;10.40;97.00;;;;;;5072133;28;20629;-55
2020/12/21 04:46:07;;;;;;;22.60;17.70;;;10.40;96.90;;;;;;5072304;28;20667;-53
2020/12/21 04:48:38;;;;;;;17.20;15.00;;;10.40;96.90;;;;;;5071771;28;20677;-54
2020/12/21 04:51:05;;;;;;;20.73;13.80;;;10.40;96.90;;;;;;5071586;28;21054;-53
2020/12/21 04:53:32;;;;;;;19.30;14.90;;;10.50;96.90;;;;;;5071844;28;21243;-54
2020/12/21 04:56:00;;;;;;;20.40;14.10;;;10.50;96.80;;;;;;5071559;28;20699;-54
2020/12/21 04:58:26;;;;;;;16.63;12.97;;;10.50;96.70;;;;;;5071483;28;20691;-54
2020/12/21 05:00:53;;;;;;;13.83;12.33;;;10.50;96.70;;;;;;5071642;28;20724;-54
2020/12/21 05:03:20;;;;;;;18.43;13.70;;;10.50;96.60;;;;;;5066560;28;20997;-53
2020/12/21 05:05:47;;;;;;;15.07;13.47;;;10.50;96.60;;;;;;5071313;28;20672;-54
2020/12/21 05:08:14;;;;;;;21.70;13.43;;;10.60;96.60;;;;;;5071351;28;20691;-53
2020/12/21 05:10:42;;;;;;;17.50;12.33;;;10.50;96.50;;;;;;5072356;28;20656;-55
2020/12/21 05:13:10;;;;;;;15.23;11.70;;;10.60;96.50;;;;;;5072284;28;20682;-54
2020/12/21 05:15:37;;;;;;;19.97;12.43;;;10.60;96.40;;;;;;5071411;28;21134;-54
2020/12/21 05:18:08;;;;;;;19.50;13.60;;;10.60;96.40;;;;;;5071915;28;20685;-53
2020/12/21 05:20:36;;;;;;;16.03;12.10;;;10.50;96.30;;;;;;5071928;28;20637;-55
2020/12/21 05:23:04;;;;;;;15.57;12.50;;;10.50;96.30;;;;;;5071889;28;20657;-53
2020/12/21 05:25:30;;;;;;;15.80;11.33;;;10.50;96.40;;;;;;5071628;28;21176;-55
2020/12/21 05:28:10;;;;;;;14.43;12.07;;;10.60;96.40;;;;;;5071137;28;20684;-54
2020/12/21 05:30:37;;;;;;;15.57;10.60;;;10.60;96.30;;;;;;5072046;28;20653;-54
2020/12/21 05:33:03;;;;;;;21.30;11.07;;;10.60;96.30;;;;;;5071465;28;21199;-54
2020/12/21 05:35:30;;;;;;;12.90;11.07;;;10.60;96.20;;;;;;5071327;28;20700;-55
2020/12/21 05:37:57;;;;;;;13.83;10.70;;;10.60;96.20;;;;;;5071530;28;20680;-54
2020/12/21 05:40:27;;;;;;;12.97;11.50;;;10.70;96.20;;;;;;5052938;28;20657;-54
2020/12/21 05:42:53;;;;;;;15.93;11.37;;;10.70;96.20;;;;;;5071021;28;20625;-55
2020/12/21 05:45:21;;;;;;;17.40;12.27;;;10.70;96.20;;;;;;5070711;28;20656;-54
2020/12/21 05:47:49;;;;;;;16.37;12.13;;;10.70;96.10;;;;;;5071076;28;20695;-56
2020/12/21 05:50:20;;;;;;;14.10;10.70;;;10.70;96.20;;;;;;5071229;28;20621;-56
2020/12/21 05:52:53;;;;;;;18.60;13.60;;;10.70;96.10;;;;;;5055860;28;20630;-55
2020/12/21 05:55:21;;;;;;;15.63;13.27;;;10.70;96.20;;;;;;5059227;28;20686;-56
2020/12/21 05:57:48;;;;;;;15.40;12.97;;;10.70;96.20;;;;;;5070978;28;20695;-56
2020/12/21 06:00:15;;;;;;;21.23;14.73;;;10.70;96.10;;;;;;5065628;28;21039;-57
2020/12/21 06:02:43;;;;;;;19.07;15.00;;;10.70;96.10;;;;;;5051479;28;20630;-56
2020/12/21 06:05:11;;;;;;;22.90;15.87;;;10.70;96.10;;;;;;5068292;28;20625;-56
2020/12/21 06:07:38;;;;;;;16.47;12.87;;;10.70;96.10;;;;;;5071311;28;20703;-56
2020/12/21 06:10:05;;;;;;;14.90;11.70;;;10.70;96.00;;;;;;5071172;28;20641;-57
2020/12/21 06:12:36;;;;;;;13.87;12.50;;;10.70;96.00;;;;;;5071090;28;20702;-58
2020/12/21 06:15:04;;;;;;;12.77;11.33;;;10.70;96.00;;;;;;5071393;28;20684;-57
2020/12/21 06:17:30;;;;;;;14.03;11.97;;;10.80;96.10;;;;;;5073740;28;21070;-55
2020/12/21 06:20:06;;;;;;;13.50;10.30;;;10.80;96.00;;;;;;5075652;28;20657;-54
2020/12/21 06:22:33;;;;;;;14.37;11.17;;;10.80;96.00;;;;;;5074612;28;20663;-56
2020/12/21 06:25:00;;;;;;;15.13;10.00;;;10.80;96.00;;;;;;5054930;28;20665;-55
2020/12/21 06:27:36;;;;;;;14.57;10.40;;;10.80;96.10;;;;;;5054541;28;20700;-55
2020/12/21 06:30:03;;;;;;;12.13;10.00;;;10.80;96.10;;;;;;5054741;28;20642;-54
2020/12/21 06:32:31;;;;;;;10.97;9.87;;;10.70;96.00;;;;;;5054737;28;20653;-55
2020/12/21 06:34:58;;;;;;;10.03;8.83;;;10.70;96.00;;;;;;5067400;28;21095;-56
2020/12/21 06:37:26;;;;;;;13.87;10.57;;;10.80;96.10;;;;;;5074163;28;20683;-56
2020/12/21 06:39:59;;;;;;;12.77;8.70;;;10.80;96.00;;;;;;5074277;28;20660;-56
2020/12/21 06:42:27;;;;;;;19.17;10.37;;;10.70;95.90;;;;;;5074264;28;20690;-55
2020/12/21 06:44:54;;;;;;;15.90;9.53;;;10.70;95.90;;;;;;5074440;28;20659;-55
2020/12/21 06:47:22;;;;;;;12.00;9.73;;;10.70;96.00;;;;;;5075072;28;21208;-55
2020/12/21 06:49:49;;;;;;;11.90;8.20;;;10.70;96.00;;;;;;5074542;28;20658;-55
2020/12/21 06:52:16;;;;;;;15.00;9.77;;;10.70;96.00;;;;;;5074596;28;20660;-56
2020/12/21 06:54:45;;;;;;;10.73;7.87;;;10.80;96.00;;;;;;5074016;28;20711;-56
2020/12/21 06:57:12;;;;;;;11.30;9.40;;;10.80;95.90;;;;;;5073938;28;20663;-56
2020/12/21 06:59:38;;;;;;;12.17;8.80;;;10.80;95.90;;;;;;5073854;28;20624;-57
2020/12/21 07:02:05;;;;;;;13.13;9.90;;;10.80;95.90;;;;;;5074074;28;21208;-57
2020/12/21 07:04:33;;;;;;;9.97;8.20;;;10.90;95.80;;;;;;5073534;28;21052;-57
2020/12/21 07:07:01;;;;;;;9.90;8.70;;;10.90;95.80;;;;;;5073633;28;20669;-57
2020/12/21 07:09:28;;;;;;;8.70;7.77;;;10.90;95.80;;;;;;5074156;28;20652;-57
2020/12/21 07:11:57;;;;;;;11.70;8.70;;;10.90;95.80;;;;;;5074290;28;21018;-54
2020/12/21 07:14:24;;;;;;;14.97;11.00;;;10.90;95.80;;;;;;5074130;28;20660;-56
2020/12/21 07:17:04;;;;;;;15.83;9.63;;;10.90;96.10;;;;;;5073932;28;20668;-56
2020/12/21 07:19:34;;;;;;;10.47;9.33;;;10.90;95.80;;;;;;5074075;28;20649;-56
2020/12/21 07:22:02;;;;;;;16.17;10.67;;;10.90;96.20;;;;;;5073661;28;20997;-56
2020/12/21 07:24:29;;;;;;;13.43;9.17;;;10.90;95.90;;;;;;5073382;28;20983;-56
2020/12/21 07:26:56;;;;;;;11.53;9.10;;;10.90;95.90;;;;;;5073618;28;20661;-55
2020/12/21 07:29:23;;;;;;;10.27;8.60;;;10.90;95.90;;;;;;5072778;28;21239;-55
2020/12/21 07:31:50;;;;;;;9.07;7.23;;;10.90;95.80;;;;;;5073218;28;21240;-55
2020/12/21 07:34:17;;;;;;;9.73;8.73;;;10.90;95.80;;;;;;5072761;28;20661;-57
2020/12/21 07:36:43;;;;;;;9.60;8.60;;;10.90;95.70;;;;;;5073216;28;21233;-57
2020/12/21 07:39:12;;;;;;;8.70;7.90;;;10.90;95.70;;;;;;5073535;28;20684;-57
2020/12/21 07:41:39;;;;;;;11.37;7.30;;;10.90;95.40;;;;;;5073800;28;20636;-56
2020/12/21 07:44:10;;;;;;;9.50;8.50;;;10.90;95.40;;;;;;5073390;28;20629;-55
2020/12/21 07:46:43;;;;;;;8.93;7.90;;;10.90;95.40;;;;;;5073231;28;21025;-57
2020/12/21 07:49:10;;;;;;;11.20;8.60;;;10.90;95.50;;;;;;5073313;28;20710;-57
2020/12/21 07:51:38;;;;;;;11.13;9.00;;;10.90;95.50;;;;;;5055413;28;20622;-58
2020/12/21 07:54:11;;;;;;;13.37;11.03;;;10.90;95.50;;;;;;5072809;28;20691;-56
2020/12/21 07:56:38;;;;;;;18.33;12.60;;;10.90;95.60;;;;;;5072998;28;20695;-57
2020/12/21 07:59:27;;;;;;;16.60;9.27;;;10.90;95.50;;;;;;5054765;28;20669;-57
2020/12/21 08:01:57;;;;;;;11.10;9.93;;;11.00;95.50;;;;;;5068965;28;21032;-57
2020/12/21 08:04:24;;;;;;;10.03;9.03;;;11.00;95.50;;;;;;5072910;28;20672;-56
2020/12/21 08:06:51;;;;;;;14.30;11.33;;;11.00;95.50;;;;;;5072933;28;20648;-55
2020/12/21 08:09:18;;;;;;;13.97;10.80;;;11.00;95.50;;;;;;5073611;28;20652;-56
2020/12/21 08:11:45;;;;;;;11.93;10.10;;;11.00;95.40;;;;;;5073004;28;21216;-54
2020/12/21 08:14:15;;;;;;;18.47;11.23;;;11.00;95.30;;;;;;5054959;28;20628;-55
2020/12/21 08:16:43;;;;;;;16.93;10.27;;;11.10;95.60;;;;;;5072847;28;20693;-55
2020/12/21 08:19:13;;;;;;;12.53;9.50;;;11.10;95.10;;;;;;5073166;28;20683;-56
2020/12/21 08:21:40;;;;;;;12.20;9.50;;;11.10;95.00;;;;;;5072657;28;20657;-57
2020/12/21 08:24:07;;;;;;;14.53;9.47;;;11.10;95.00;;;;;;5073198;28;20637;-56
2020/12/21 08:26:35;;;;;;;9.73;8.07;;;11.00;94.80;;;;;;5072766;28;20628;-55
2020/12/21 08:29:02;;;;;;;12.03;8.47;;;11.10;94.70;;;;;;5072893;28;20657;-54
2020/12/21 08:31:29;;;;;;;12.80;8.10;;;11.00;94.70;;;;;;5072194;28;20657;-54
2020/12/21 08:33:59;;;;;;;14.63;7.33;;;11.00;94.60;;;;;;5072177;28;21172;-55
2020/12/21 08:36:27;;;;;;;12.80;8.17;;;11.00;94.50;;;;;;5061905;28;21092;-55
2020/12/21 08:38:54;;;;;;;8.20;6.50;;;11.10;94.40;;;;;;5052803;28;20697;-54
2020/12/21 08:41:20;;;;;;;7.97;7.17;;;11.00;94.80;;;;;;5051353;28;20665;-55
2020/12/21 08:43:47;;;;;;;9.67;7.07;;;11.00;94.50;;;;;;5052173;28;21178;-55
2020/12/21 08:46:14;;;;;;;9.40;6.73;;;11.00;94.70;;;;;;5055540;28;20653;-55
2020/12/21 08:48:42;;;;;;;9.27;7.07;;;11.10;94.40;;;;;;5071928;28;21044;-55
2020/12/21 08:51:10;;;;;;;10.73;7.60;;;11.10;94.40;;;;;;5071901;28;20637;-55
2020/12/21 08:53:37;;;;;;;8.33;7.43;;;11.10;94.40;;;;;;5072635;28;20661;-57
2020/12/21 08:56:11;;;;;;;8.50;7.17;;;11.10;94.40;;;;;;5072121;28;20700;-55
2020/12/21 08:58:38;;;;;;;10.07;7.77;;;11.10;94.50;;;;;;5071418;28;20689;-57
2020/12/21 09:01:06;;;;;;;10.20;9.20;;;11.20;94.60;;;;;;5072067;28;20706;-57
2020/12/21 09:03:33;;;;;;;11.90;9.10;;;11.20;94.60;;;;;;5071635;28;20686;-56
2020/12/21 09:05:59;;;;;;;15.20;8.07;;;11.20;94.80;;;;;;5072281;28;20988;-56
2020/12/21 09:08:28;;;;;;;15.93;9.17;;;11.20;94.90;;;;;;5071810;28;20653;-57
2020/12/21 09:10:55;;;;;;;13.87;9.67;;;11.20;95.00;;;;;;5071699;28;20629;-56
2020/12/21 09:13:22;;;;;;;12.47;9.90;;;11.30;95.10;;;;;;5071790;28;20637;-56
2020/12/21 09:15:48;;;;;;;9.43;8.50;;;11.30;95.10;;;;;;5072555;28;21039;-57
2020/12/21 09:18:15;;;;;;;13.40;9.30;;;11.30;95.10;;;;;;5071599;28;20692;-57
2020/12/21 09:20:43;;;;;;;14.13;9.43;;;11.30;95.10;;;;;;5072167;28;20665;-56
2020/12/21 09:23:10;;;;;;;11.63;10.07;;;11.30;95.10;;;;;;5071871;28;20861;-56
2020/12/21 09:25:37;;;;;;;13.63;9.60;;;11.30;95.10;;;;;;5072153;28;20693;-57
2020/12/21 09:28:06;;;;;;;8.00;7.20;;;11.30;95.00;;;;;;5073255;28;21220;-56
2020/12/21 09:30:33;;;;;;;17.07;9.87;;;11.40;95.00;;;;;;5071583;28;20674;-54
2020/12/21 09:33:01;;;;;;;14.53;9.80;;;11.40;95.00;;;;;;5071366;28;20657;-55
2020/12/21 09:35:27;;;;;;;11.47;9.10;;;11.40;95.10;;;;;;5071595;28;21086;-54
2020/12/21 09:37:54;;;;;;;8.10;7.30;;;11.50;95.10;;;;;;5070953;28;20715;-57
2020/12/21 09:40:21;;;;;;;12.43;8.90;;;11.50;95.10;;;;;;5071503;28;20670;-55
2020/12/21 09:42:49;;;;;;;14.20;8.77;;;11.50;95.20;;;;;;5071230;28;20672;-55
2020/12/21 09:45:16;;;;;;;8.23;7.07;;;11.50;95.20;;;;;;5053003;28;20992;-55
2020/12/21 09:47:44;;;;;;;10.00;7.03;;;11.50;95.30;;;;;;5071116;28;20720;-55
2020/12/21 09:50:11;;;;;;;11.93;9.20;;;11.50;95.40;;;;;;5071292;28;20702;-55
2020/12/21 09:52:38;;;;;;;8.53;7.67;;;11.50;95.40;;;;;;5071097;28;20653;-55
2020/12/21 09:55:05;;;;;;;9.00;7.90;;;11.50;95.30;;;;;;5071350;28;21057;-54
2020/12/21 09:57:32;;;;;;;11.53;8.20;;;11.50;95.20;;;;;;5085987;22;20663;-52
2020/12/21 10:00:00;;;;;;;11.80;7.70;;;11.50;95.30;;;;;;5048378;28;20700;-49
2020/12/21 10:02:27;;;;;;;9.43;8.50;;;11.50;95.30;;;;;;5049637;28;20669;-49
2020/12/21 10:04:53;;;;;;;13.17;7.60;;;11.50;95.20;;;;;;5049372;28;20625;-52
2020/12/21 10:07:20;;;;;;;9.67;7.90;;;11.60;95.30;;;;;;5048984;28;20625;-52
2020/12/21 10:09:47;;;;;;;7.77;6.97;;;11.60;95.30;;;;;;5049905;28;20808;-52
2020/12/21 10:12:14;;;;;;;8.90;8.00;;;11.60;95.30;;;;;;5049418;28;20626;-56
2020/12/21 10:14:43;;;;;;;11.73;7.60;;;11.70;95.30;;;;;;5049888;28;20712;-54
2020/12/21 10:17:10;;;;;;;7.43;6.53;;;11.70;95.20;;;;;;5058473;28;20714;-52
2020/12/21 10:19:37;;;;;;;8.30;7.53;;;11.70;95.20;;;;;;5069687;28;21085;-50
2020/12/21 10:22:04;;;;;;;10.93;8.13;;;11.70;95.20;;;;;;5069394;28;20664;-52
2020/12/21 10:24:33;;;;;;;11.63;7.57;;;11.80;95.30;;;;;;5069672;28;20661;-53
2020/12/21 10:27:00;;;;;;;8.43;6.60;;;11.80;95.20;;;;;;5069280;28;20613;-53
2020/12/21 10:29:27;;;;;;;12.20;7.03;;;11.80;95.20;;;;;;5069212;28;20998;-53
2020/12/21 10:31:57;;;;;;;9.60;7.43;;;11.80;95.10;;;;;;5069209;28;20628;-52
2020/12/21 10:34:25;;;;;;;8.70;7.77;;;12.00;95.10;;;;;;5068741;28;21226;-53
2020/12/21 10:36:52;;;;;;;10.70;7.40;;;11.90;95.00;;;;;;5068393;28;21093;-53
2020/12/21 10:39:19;;;;;;;7.30;6.60;;;11.90;94.90;;;;;;5068661;28;20695;-53
2020/12/21 10:41:45;;;;;;;11.57;9.13;;;12.00;94.90;;;;;;5068879;28;20629;-53
2020/12/21 10:44:13;;;;;;;7.77;6.97;;;12.00;94.80;;;;;;5069166;28;20748;-49
2020/12/21 10:46:40;;;;;;;8.17;6.67;;;12.00;94.70;;;;;;5075500;28;20743;-50
2020/12/21 10:49:06;;;;;;;6.87;6.20;;;12.10;94.70;;;;;;5088617;28;20684;-50
2020/12/21 10:51:34;;;;;;;12.13;7.30;;;12.10;94.70;;;;;;5089269;28;20701;-50
2020/12/21 10:54:02;;;;;;;13.23;8.20;;;12.10;94.70;;;;;;5088745;28;21211;-49
2020/12/21 10:56:29;;;;;;;9.77;7.17;;;12.20;94.70;;;;;;5088844;28;20691;-51
2020/12/21 10:58:56;;;;;;;8.07;5.90;;;12.20;94.70;;;;;;5088992;28;20656;-50
2020/12/21 11:01:23;;;;;;;7.87;6.93;;;12.20;94.50;;;;;;5070541;28;20966;-50
2020/12/21 11:03:50;;;;;;;7.60;6.90;;;12.30;94.50;;;;;;5090342;28;20675;-48
2020/12/21 11:06:20;;;;;;;6.87;6.17;;;12.30;94.40;;;;;;5092364;28;20635;-50
2020/12/21 11:08:48;;;;;;;7.47;6.17;;;12.30;94.30;;;;;;5092835;28;20647;-49
2020/12/21 11:11:15;;;;;;;9.17;6.80;;;12.30;94.30;;;;;;5092589;28;20632;-49
2020/12/21 11:13:42;;;;;;;6.13;5.53;;;12.30;94.30;;;;;;5092438;28;20652;-49
2020/12/21 11:16:11;;;;;;;8.00;7.10;;;12.30;94.30;;;;;;5092415;28;21237;-49
2020/12/21 11:18:38;;;;;;;7.33;5.40;;;12.40;94.40;;;;;;5091945;28;20647;-49
2020/12/21 11:21:05;;;;;;;6.73;6.13;;;12.40;94.30;;;;;;5092052;28;21211;-48
2020/12/21 11:23:32;;;;;;;7.80;5.50;;;12.40;94.30;;;;;;5091863;28;20664;-50
2020/12/21 11:25:59;;;;;;;5.50;5.00;;;12.50;94.20;;;;;;5092426;28;20624;-53
2020/12/21 11:28:26;;;;;;;7.97;6.20;;;12.50;94.30;;;;;;5092338;28;20687;-54
2020/12/21 11:30:53;;;;;;;5.90;5.30;;;12.50;94.20;;;;;;5091934;28;21189;-52
2020/12/21 11:33:20;;;;;;;7.30;6.60;;;12.60;94.20;;;;;;5092105;28;20623;-54
2020/12/21 11:35:47;;;;;;;7.07;4.60;;;12.70;94.20;;;;;;5090811;28;20644;-53
2020/12/21 11:38:15;;;;;;;6.70;4.77;;;12.70;94.10;;;;;;5092091;28;20686;-52
2020/12/21 11:40:42;;;;;;;7.13;5.33;;;12.80;93.90;;;;;;5091923;28;20660;-52
2020/12/21 11:43:11;;;;;;;9.23;6.10;;;12.80;93.70;;;;;;5091492;28;20627;-52
2020/12/21 11:45:38;;;;;;;7.33;5.27;;;12.80;93.60;;;;;;5091157;28;20660;-52
2020/12/21 11:48:05;;;;;;;6.10;4.93;;;12.80;93.70;;;;;;5090865;28;20773;-53
2020/12/21 11:50:31;;;;;;;5.60;5.10;;;12.80;93.50;;;;;;5090480;28;20659;-52
2020/12/21 11:52:58;;;;;;;9.20;4.90;;;12.80;93.50;;;;;;5091875;28;20652;-54
2020/12/21 11:55:25;;;;;;;7.37;4.13;;;12.90;93.60;;;;;;5092245;28;20656;-54
2020/12/21 11:57:52;;;;;;;9.30;4.77;;;12.80;93.40;;;;;;5090828;28;21063;-52
2020/12/21 12:00:19;;;;;;;6.77;6.17;;;12.80;93.60;;;;;;5091508;28;20640;-53
2020/12/21 12:02:46;;;;;;;5.67;5.00;;;12.80;93.80;;;;;;5091210;28;20628;-53
2020/12/21 12:05:13;;;;;;;5.87;4.83;;;12.60;94.00;;;;;;5091398;28;20667;-49
2020/12/21 12:07:40;;;;;;;8.00;5.90;;;12.60;94.20;;;;;;5091225;28;20635;-49
2020/12/21 12:10:07;;;;;;;6.67;6.00;;;12.50;94.10;;;;;;5091887;28;20709;-48
2020/12/21 12:12:34;;;;;;;5.30;4.60;;;12.50;94.20;;;;;;5091126;28;20616;-49
2020/12/21 12:15:01;;;;;;;7.53;5.80;;;12.50;93.90;;;;;;5091263;28;20630;-49
2020/12/21 12:17:29;;;;;;;5.60;5.10;;;12.40;93.50;;;;;;5090926;28;20746;-49
2020/12/21 12:19:55;;;;;;;6.50;5.90;;;12.30;93.40;;;;;;5060321;28;21216;-51
2020/12/21 12:22:22;;;;;;;6.97;5.00;;;12.30;93.50;;;;;;5052744;28;21004;-49
2020/12/21 12:24:49;;;;;;;5.37;4.87;;;12.30;93.70;;;;;;5070113;28;20664;-49
2020/12/21 12:27:16;;;;;;;9.23;5.27;;;12.30;93.60;;;;;;5071163;28;20663;-49
2020/12/21 12:29:43;;;;;;;5.53;4.83;;;12.40;93.50;;;;;;5070129;28;21180;-50
2020/12/21 12:32:10;;;;;;;6.33;4.50;;;12.40;93.50;;;;;;5070570;28;20612;-49
2020/12/21 12:34:39;;;;;;;8.77;5.50;;;12.40;93.40;;;;;;5077916;28;21222;-50